createdAt,value
2023-04-15T00:00:13.762Z,7.77
2023-04-15T00:03:19.301Z,7.76
2023-04-15T00:06:24.813Z,7.78
2023-04-15T00:09:29.661Z,7.82
2023-04-15T00:12:34.058Z,7.81
2023-04-15T00:15:38.337Z,7.84
2023-04-15T00:18:42.888Z,7.80
2023-04-15T00:21:47.309Z,7.82
2023-04-15T00:24:54.161Z,7.83
2023-04-15T00:27:58.307Z,7.79
2023-04-15T00:31:03.093Z,7.82
2023-04-15T00:34:08.238Z,7.82
2023-04-15T00:37:12.777Z,7.85
2023-04-15T00:40:19.748Z,7.85
2023-04-15T00:43:24.350Z,7.84
2023-04-15T00:46:31.061Z,7.81
2023-04-15T00:49:35.338Z,7.83
2023-04-15T00:52:40.680Z,7.86
2023-04-15T00:55:45.588Z,7.84
2023-04-15T00:58:51.404Z,7.83
2023-04-15T01:01:56.483Z,7.81
2023-04-15T01:05:01.368Z,7.78
2023-04-15T01:08:06.295Z,7.81
2023-04-15T01:11:12.603Z,7.79
2023-04-15T01:14:16.653Z,7.79
2023-04-15T01:17:21.503Z,7.79
2023-04-15T01:20:26.194Z,7.80
2023-04-15T01:23:31.330Z,7.78
2023-04-15T01:26:37.890Z,7.77
2023-04-15T01:29:43.122Z,7.78
2023-04-15T01:32:47.482Z,7.82
2023-04-15T01:35:51.634Z,7.83
2023-04-15T01:38:57.327Z,7.79
2023-04-15T01:42:01.806Z,7.77
2023-04-15T01:45:07.180Z,7.76
2023-04-15T01:48:12.338Z,7.76
2023-04-15T01:51:17.220Z,7.76
2023-04-15T01:54:21.837Z,7.77
2023-04-15T01:57:26.387Z,7.78
2023-04-15T02:00:32.561Z,7.81
2023-04-15T02:03:38.913Z,7.81
2023-04-15T02:06:43.972Z,7.81
2023-04-15T02:09:48.180Z,7.80
2023-04-15T02:12:52.439Z,7.79
2023-04-15T02:15:57.073Z,7.76
2023-04-15T02:19:02.178Z,7.77
2023-04-15T02:22:07.728Z,7.77
2023-04-15T02:25:12.166Z,7.73
2023-04-15T02:28:16.540Z,7.78
2023-04-15T02:31:21.714Z,7.81
2023-04-15T02:34:27.318Z,7.80
2023-04-15T02:37:32.542Z,7.79
2023-04-15T02:40:37.351Z,7.78
2023-04-15T02:43:41.859Z,7.74
2023-04-15T02:46:52.448Z,7.77
2023-04-15T02:49:58.591Z,7.77
2023-04-15T02:53:03.179Z,7.80
2023-04-15T02:56:08.390Z,7.80
2023-04-15T02:59:13.338Z,7.78
2023-04-15T03:02:17.777Z,7.75
2023-04-15T03:05:25.727Z,7.82
2023-04-15T03:08:30.045Z,7.82
2023-04-15T03:11:36.853Z,7.82
2023-04-15T03:14:41.137Z,7.83
2023-04-15T03:17:45.541Z,7.83
2023-04-15T03:20:49.381Z,7.86
2023-04-15T03:23:53.789Z,7.85
2023-04-15T03:26:58.324Z,7.90
2023-04-15T03:30:03.261Z,7.87
2023-04-15T03:33:08.579Z,7.87
2023-04-15T03:36:12.647Z,7.88
2023-04-15T03:39:17.213Z,7.82
2023-04-15T03:42:21.812Z,7.85
2023-04-15T03:45:26.299Z,7.86
2023-04-15T03:48:31.073Z,7.86
2023-04-15T03:51:35.765Z,7.90
2023-04-15T03:54:40.248Z,7.90
2023-04-15T03:57:44.275Z,7.86
2023-04-15T04:00:48.772Z,7.91
2023-04-15T04:03:53.423Z,7.94
2023-04-15T04:06:57.914Z,7.96
2023-04-15T04:10:03.745Z,7.94
2023-04-15T04:13:08.114Z,7.95
2023-04-15T04:16:12.550Z,7.96
2023-04-15T04:19:19.570Z,7.93
2023-04-15T04:22:24.745Z,7.95
2023-04-15T04:25:29.148Z,7.97
2023-04-15T04:28:35.190Z,7.95
2023-04-15T04:31:39.569Z,7.95
2023-04-15T04:34:43.637Z,7.96
2023-04-15T04:37:48.113Z,8.01
2023-04-15T04:40:52.613Z,8.04
2023-04-15T04:43:56.786Z,8.01
2023-04-15T04:47:01.246Z,8.02
2023-04-15T04:50:06.852Z,8.03
2023-04-15T04:53:11.072Z,8.06
2023-04-15T04:56:15.558Z,8.05
2023-04-15T04:59:19.929Z,8.05
2023-04-15T05:02:27.095Z,8.05
2023-04-15T05:05:31.968Z,8.03
2023-04-15T05:08:36.704Z,8.11
2023-04-15T05:11:41.934Z,8.10
2023-04-15T05:14:46.859Z,8.13
2023-04-15T05:17:51.659Z,8.19
2023-04-15T05:20:56.121Z,8.24
2023-04-15T05:23:59.982Z,8.22
2023-04-15T05:27:04.771Z,8.23
2023-04-15T05:30:10.272Z,8.24
2023-04-15T05:33:16.463Z,8.22
2023-04-15T05:36:21.188Z,8.24
2023-04-15T05:39:26.588Z,8.23
2023-04-15T05:42:30.968Z,8.25
2023-04-15T05:45:35.197Z,8.28
2023-04-15T05:48:39.510Z,8.32
2023-04-15T05:51:43.676Z,8.34
2023-04-15T05:54:47.892Z,8.37
2023-04-15T05:57:52.265Z,8.33
2023-04-15T06:00:56.856Z,8.37
2023-04-15T06:04:01.948Z,8.33
2023-04-15T06:07:06.845Z,8.36
2023-04-15T06:10:11.778Z,8.37
2023-04-15T06:13:17.062Z,8.43
2023-04-15T06:16:21.940Z,8.46
2023-04-15T06:19:26.937Z,8.50
2023-04-15T06:22:31.659Z,8.50
2023-04-15T06:25:36.108Z,8.51
2023-04-15T06:28:40.734Z,8.54
2023-04-15T06:31:45.152Z,8.54
2023-04-15T06:34:49.374Z,8.52
2023-04-15T06:37:53.616Z,8.51
2023-04-15T06:40:57.989Z,8.55
2023-04-15T06:44:02.776Z,8.58
2023-04-15T06:47:07.021Z,8.57
2023-04-15T06:50:11.590Z,8.55
2023-04-15T06:53:16.137Z,8.58
2023-04-15T06:56:20.525Z,8.60
2023-04-15T06:59:25.204Z,8.60
2023-04-15T07:02:29.780Z,8.65
2023-04-15T07:05:34.145Z,8.72
2023-04-15T07:08:39.135Z,8.78
2023-04-15T07:11:43.580Z,8.82
2023-04-15T07:14:47.863Z,8.88
2023-04-15T07:17:52.527Z,8.85
2023-04-15T07:20:56.760Z,8.96
2023-04-15T07:24:01.327Z,9.00
2023-04-15T07:27:05.711Z,9.00
2023-04-15T07:30:11.350Z,9.02
2023-04-15T07:33:15.836Z,9.02
2023-04-15T07:36:20.771Z,9.04
2023-04-15T07:39:24.933Z,9.07
2023-04-15T07:42:29.369Z,9.05
2023-04-15T07:45:33.478Z,9.00
2023-04-15T07:48:37.872Z,8.97
2023-04-15T07:51:42.302Z,8.97
2023-04-15T07:54:46.268Z,9.03
2023-04-15T07:57:51.110Z,9.06
2023-04-15T08:00:55.515Z,9.06
2023-04-15T08:04:00.516Z,9.14
2023-04-15T08:07:06.070Z,9.19
2023-04-15T08:10:11.208Z,9.22
2023-04-15T08:13:16.075Z,9.25
2023-04-15T08:16:22.869Z,9.25
2023-04-15T08:19:27.194Z,9.21
2023-04-15T08:22:31.528Z,9.22
2023-04-15T08:25:36.177Z,9.26
2023-04-15T08:28:42.449Z,9.24
2023-04-15T08:31:47.787Z,9.26
2023-04-15T08:34:54.508Z,9.23
2023-04-15T08:37:58.764Z,9.23
2023-04-15T08:41:25.543Z,9.26
2023-04-15T08:44:33.363Z,9.26
2023-04-15T08:47:41.796Z,9.27
2023-04-15T08:50:47.918Z,9.24
2023-04-15T08:53:52.937Z,9.23
2023-04-15T08:56:58.701Z,9.21
2023-04-15T09:00:05.722Z,9.15
2023-04-15T09:03:11.112Z,9.18
2023-04-15T09:06:18.094Z,9.20
2023-04-15T09:09:22.723Z,9.26
2023-04-15T09:12:27.307Z,9.27
2023-04-15T09:15:33.016Z,9.25
2023-04-15T09:18:39.130Z,9.33
2023-04-15T09:21:47.134Z,9.35
2023-04-15T09:24:51.656Z,9.39
2023-04-15T09:28:01.104Z,9.47
2023-04-15T09:31:05.633Z,9.53
2023-04-15T09:34:10.765Z,9.64
2023-04-15T09:37:31.618Z,9.74
2023-04-15T09:40:39.751Z,9.82
2023-04-15T09:43:43.870Z,9.87
2023-04-15T09:46:47.908Z,9.92
2023-04-15T09:50:00.310Z,10.05
2023-04-15T09:53:04.784Z,10.24
2023-04-15T09:56:10.440Z,10.39
2023-04-15T09:59:14.723Z,10.43
2023-04-15T10:02:22.900Z,10.46
2023-04-15T10:05:29.753Z,10.53
2023-04-15T10:08:35.353Z,10.57
2023-04-15T10:11:40.536Z,10.64
2023-04-15T10:14:49.288Z,10.66
2023-04-15T10:17:54.928Z,10.74
2023-04-15T10:21:01.964Z,10.78
2023-04-15T10:24:07.115Z,10.83
2023-04-15T10:27:11.730Z,10.82
2023-04-15T10:30:17.537Z,11.00
2023-04-15T10:33:24.530Z,11.01
2023-04-15T10:36:28.586Z,11.14
2023-04-15T10:39:40.205Z,11.25
2023-04-15T10:42:44.443Z,11.31
2023-04-15T10:45:48.754Z,11.45
2023-04-15T10:48:54.080Z,11.67
2023-04-15T10:51:59.762Z,11.77
2023-04-15T10:55:24.985Z,11.90
2023-04-15T10:58:43.086Z,12.02
2023-04-15T11:01:56.700Z,12.14
2023-04-15T11:05:01.851Z,12.40
2023-04-15T11:08:06.682Z,12.49
2023-04-15T11:11:11.323Z,12.60
2023-04-15T11:14:16.419Z,12.56
2023-04-15T11:17:31.389Z,12.54
2023-04-15T11:20:41.461Z,12.59
2023-04-15T11:23:49.273Z,12.56
2023-04-15T11:27:02.318Z,12.51
2023-04-15T11:30:27.396Z,12.57
2023-04-15T11:33:31.476Z,12.75
2023-04-15T11:36:36.872Z,12.93
2023-04-15T11:39:42.252Z,13.05
2023-04-15T11:43:11.433Z,13.16
2023-04-15T11:46:15.960Z,13.33
2023-04-15T11:49:31.323Z,13.27
2023-04-15T11:52:35.507Z,13.54
2023-04-15T11:55:45.114Z,13.63
2023-04-15T11:58:54.164Z,13.69
2023-04-15T12:01:58.841Z,13.82
2023-04-15T12:05:05.487Z,13.80
2023-04-15T12:08:09.368Z,13.70
2023-04-15T12:11:14.541Z,13.71
2023-04-15T12:14:24.738Z,14.05
2023-04-15T12:17:29.303Z,14.24
2023-04-15T12:20:54.556Z,14.17
2023-04-15T12:24:04.886Z,14.10
2023-04-15T12:27:12.170Z,13.85
2023-04-15T12:30:16.314Z,13.55
2023-04-15T12:33:20.267Z,13.19
2023-04-15T12:36:25.158Z,13.20
2023-04-15T12:39:34.846Z,13.34
2023-04-15T12:42:39.215Z,13.68
2023-04-15T12:45:44.053Z,14.23
2023-04-15T12:48:48.349Z,14.11
2023-04-15T12:52:02.782Z,14.08
2023-04-15T12:55:07.719Z,14.07
2023-04-15T12:58:12.172Z,14.05
2023-04-15T13:01:16.564Z,14.21
2023-04-15T13:04:21.345Z,14.14
2023-04-15T13:07:26.052Z,13.95
2023-04-15T13:10:31.589Z,13.74
2023-04-15T13:13:35.891Z,13.58
2023-04-15T13:16:40.902Z,13.68
2023-04-15T13:19:45.490Z,13.62
2023-04-15T13:22:49.998Z,13.61
2023-04-15T13:25:54.291Z,13.47
2023-04-15T13:28:58.783Z,13.33
2023-04-15T13:32:03.442Z,13.27
2023-04-15T13:35:08.640Z,13.23
2023-04-15T13:38:12.796Z,13.22
2023-04-15T13:41:17.403Z,13.13
2023-04-15T13:44:22.195Z,13.04
2023-04-15T13:47:26.905Z,13.23
2023-04-15T13:50:31.077Z,13.36
2023-04-15T13:53:39.021Z,13.52
2023-04-15T13:56:43.841Z,13.63
2023-04-15T13:59:48.511Z,13.64
2023-04-15T14:02:53.045Z,13.69
2023-04-15T14:05:58.397Z,13.71
2023-04-15T14:09:07.930Z,13.60
2023-04-15T14:12:12.572Z,13.39
2023-04-15T14:15:17.033Z,13.31
2023-04-15T14:18:21.120Z,13.33
2023-04-15T14:21:27.792Z,13.41
2023-04-15T14:24:32.156Z,13.30
2023-04-15T14:27:36.456Z,13.21
2023-04-15T14:30:40.853Z,13.11
2023-04-15T14:33:46.274Z,13.09
2023-04-15T14:36:53.450Z,13.09
2023-04-15T14:39:57.830Z,13.11
2023-04-15T14:43:02.585Z,13.03
2023-04-15T14:46:08.494Z,12.95
2023-04-15T14:49:13.392Z,12.91
2023-04-15T14:52:17.847Z,12.94
2023-04-15T14:55:22.088Z,12.98
2023-04-15T14:58:26.052Z,12.95
2023-04-15T15:01:30.756Z,12.97
2023-04-15T15:04:36.150Z,13.02
2023-04-15T15:07:41.247Z,12.93
2023-04-15T15:10:49.063Z,12.88
2023-04-15T15:13:54.169Z,12.87
2023-04-15T15:16:58.407Z,12.92
2023-04-15T15:20:03.577Z,13.16
2023-04-15T15:23:08.261Z,13.54
2023-04-15T15:26:12.974Z,13.54
2023-04-15T15:29:17.440Z,13.41
2023-04-15T15:32:21.669Z,13.25
2023-04-15T15:35:26.154Z,13.10
2023-04-15T15:38:30.569Z,13.01
2023-04-15T15:41:35.044Z,12.92
2023-04-15T15:44:39.710Z,12.87
2023-04-15T15:47:44.170Z,12.90
2023-04-15T15:50:48.781Z,12.78
2023-04-15T15:53:53.323Z,12.75
2023-04-15T15:56:58.008Z,12.76
2023-04-15T16:03:11.396Z,12.66
2023-04-15T16:06:16.613Z,12.63
2023-04-15T16:09:21.024Z,12.59
2023-04-15T16:12:25.421Z,12.55
2023-04-15T16:15:29.887Z,12.51
2023-04-15T16:18:35.262Z,12.44
2023-04-15T16:21:39.844Z,12.41
2023-04-15T16:24:44.233Z,12.39
2023-04-15T16:28:00.912Z,12.37
2023-04-15T16:31:07.980Z,12.37
2023-04-15T16:34:12.304Z,12.35
2023-04-15T16:37:16.665Z,12.47
2023-04-15T16:40:20.965Z,12.49
2023-04-15T16:43:26.078Z,12.48
2023-04-15T16:46:30.903Z,12.39
2023-04-15T16:49:35.691Z,12.30
2023-04-15T16:52:40.207Z,12.25
2023-04-15T16:55:44.754Z,12.17
2023-04-15T16:58:49.253Z,12.13
2023-04-15T17:01:55.186Z,12.12
2023-04-15T17:04:59.398Z,12.14
2023-04-15T17:08:04.640Z,12.12
2023-04-15T17:11:09.301Z,12.11
2023-04-15T17:14:13.450Z,12.12
2023-04-15T17:17:17.772Z,12.16
2023-04-15T17:20:22.000Z,12.16
2023-04-15T17:23:27.197Z,12.22
2023-04-15T17:26:31.931Z,12.35
2023-04-15T17:29:36.525Z,12.26
2023-04-15T17:32:41.046Z,12.10
2023-04-15T17:35:45.720Z,12.01
2023-04-15T17:38:50.119Z,11.92
2023-04-15T17:41:54.643Z,11.92
2023-04-15T17:44:59.044Z,11.90
2023-04-15T17:48:03.622Z,11.90
2023-04-15T17:51:08.457Z,11.87
2023-04-15T17:54:12.383Z,11.82
2023-04-15T17:57:16.798Z,11.70
2023-04-15T18:00:21.412Z,11.63
2023-04-15T18:03:26.882Z,11.56
2023-04-15T18:06:31.833Z,11.49
2023-04-15T18:09:36.649Z,11.41
2023-04-15T18:12:40.780Z,11.31
2023-04-15T18:15:46.906Z,11.22
2023-04-15T18:18:52.344Z,11.18
2023-04-15T18:21:56.870Z,11.18
2023-04-15T18:25:04.245Z,11.12
2023-04-15T18:28:10.036Z,11.10
2023-04-15T18:31:14.444Z,11.11
2023-04-15T18:34:18.745Z,11.12
2023-04-15T18:37:23.190Z,11.07
2023-04-15T18:40:27.510Z,11.07
2023-04-15T18:43:32.434Z,11.03
2023-04-15T18:46:36.557Z,10.99
2023-04-15T18:49:41.485Z,10.98
2023-04-15T18:52:46.408Z,10.91
2023-04-15T18:55:50.813Z,10.87
2023-04-15T18:59:19.377Z,10.79
2023-04-15T19:02:20.214Z,10.75
2023-04-15T19:05:25.102Z,10.62
2023-04-15T19:08:30.673Z,10.53
2023-04-15T19:11:34.997Z,10.37
2023-04-15T19:14:39.488Z,10.27
2023-04-15T19:17:43.610Z,10.22
2023-04-15T19:20:50.218Z,10.14
2023-04-15T19:23:57.252Z,10.12
2023-04-15T19:27:02.179Z,10.07
2023-04-15T19:30:08.193Z,10.06
2023-04-15T19:33:12.781Z,10.06
2023-04-15T19:36:18.189Z,10.04
2023-04-15T19:39:23.467Z,10.04
2023-04-15T19:42:27.694Z,10.02
2023-04-15T19:45:32.114Z,9.99
2023-04-15T19:48:36.833Z,9.98
2023-04-15T19:51:42.141Z,9.96
2023-04-15T19:54:46.679Z,10.00
2023-04-15T19:57:51.193Z,9.98
2023-04-15T20:00:56.705Z,9.97
2023-04-15T20:04:03.430Z,9.96
2023-04-15T20:07:08.012Z,9.97
2023-04-15T20:10:13.215Z,9.95
2023-04-15T20:13:17.571Z,9.95
2023-04-15T20:16:22.066Z,9.93
2023-04-15T20:19:26.975Z,9.90
2023-04-15T20:22:32.988Z,9.87
2023-04-15T20:25:37.511Z,9.87
2023-04-15T20:28:41.853Z,9.84
2023-04-15T20:31:46.377Z,9.80
2023-04-15T20:34:51.135Z,9.81
2023-04-15T20:37:55.487Z,9.78
2023-04-15T20:40:59.735Z,9.68
2023-04-15T20:44:04.105Z,9.67
2023-04-15T20:47:08.603Z,9.64
2023-04-15T20:50:13.328Z,9.58
2023-04-15T20:53:17.794Z,9.54
2023-04-15T20:56:21.973Z,9.50
2023-04-15T20:59:27.306Z,9.46
2023-04-15T21:02:31.788Z,9.44
2023-04-15T21:05:36.309Z,9.44
2023-04-15T21:08:40.845Z,9.39
2023-04-15T21:14:56.768Z,9.33
2023-04-15T21:18:01.291Z,9.29
2023-04-15T21:21:06.589Z,9.30
2023-04-15T21:24:10.893Z,9.26
2023-04-15T21:27:15.127Z,9.23
2023-04-15T21:30:19.557Z,9.20
2023-04-15T21:33:24.072Z,9.19
2023-04-15T21:36:28.641Z,9.15
2023-04-15T21:39:32.922Z,9.18
2023-04-15T21:42:37.479Z,9.18
2023-04-15T21:45:43.555Z,9.16
2023-04-15T21:49:08.190Z,9.19
2023-04-15T21:52:12.679Z,9.19
2023-04-15T21:55:17.179Z,9.19
2023-04-15T21:58:21.619Z,9.18
2023-04-15T22:01:26.833Z,9.16
2023-04-15T22:04:31.223Z,9.15
2023-04-15T22:07:36.321Z,9.17
2023-04-15T22:10:40.854Z,9.15
2023-04-15T22:13:45.067Z,9.13
2023-04-15T22:16:49.368Z,9.12
2023-04-15T22:19:54.333Z,9.11
2023-04-15T22:22:58.633Z,9.08
2023-04-15T22:26:03.081Z,9.08
2023-04-15T22:29:07.763Z,9.10
2023-04-15T22:32:12.402Z,9.09
2023-04-15T22:35:17.069Z,9.07
2023-04-15T22:38:21.559Z,9.06
2023-04-15T22:41:25.593Z,9.06
2023-04-15T22:44:30.122Z,9.06
2023-04-15T22:47:34.947Z,9.08
2023-04-15T22:50:39.246Z,9.06
2023-04-15T22:53:43.174Z,9.03
2023-04-15T22:56:47.208Z,8.97
2023-04-15T22:59:51.569Z,8.97
2023-04-15T23:02:56.205Z,8.94
2023-04-15T23:06:01.934Z,8.95
2023-04-15T23:09:06.483Z,8.92
2023-04-15T23:12:10.842Z,8.96
2023-04-15T23:15:15.850Z,8.98
2023-04-15T23:18:20.416Z,9.01
2023-04-15T23:21:26.123Z,9.00
2023-04-15T23:24:30.807Z,9.00
2023-04-15T23:27:35.830Z,8.98
2023-04-15T23:30:40.050Z,8.98
2023-04-15T23:33:44.263Z,8.96
2023-04-15T23:36:48.601Z,8.94
2023-04-15T23:39:52.969Z,8.88
2023-04-15T23:42:57.562Z,8.87
2023-04-15T23:46:02.144Z,8.82
2023-04-15T23:49:06.383Z,8.81
2023-04-15T23:52:10.829Z,8.81
2023-04-15T23:55:15.401Z,8.78
2023-04-15T23:58:19.601Z,8.75
